Flight Track Log - Related Links

Times and Time Zones

All times are in EDT time to prevent confusion due to time zone crossing. See the SWA3206 flight status page for this flight to view local times or setup timezone preferences in your user account.

Time Position Orientation Groundspeed Altitude Reporting Facility
EDT Latitude Longitude Course Direction KTS MPH feet Rate Location/Type
Sun 09:20:51 PM 33.4333 -112.0333 272° West 174 200 2,000  Level Phoenix TRACON
Sun 09:22:11 PM 33.4364 -112.1250 272° West 219 252 4,700 2,324 Climbing Albuquerque Center
Sun 09:23:13 PM 33.4556 -112.1933 289° West 243 280 7,500 2,390 Climbing Albuquerque Center
Sun 09:24:14 PM 33.5078 -112.1508 34° Northeast 283 326 9,600 2,293 Climbing Albuquerque Center
Sun 09:25:16 PM 33.5269 -112.0567 76° East 295 339 12,200 2,341 Climbing Albuquerque Center
Sun 09:26:17 PM 33.5511 -111.9450 75° East 352 405 14,400 2,459 Climbing Albuquerque Center
Sun 09:27:18 PM 33.5733 -111.8303 77° East 356 410 17,200 2,878 Climbing Albuquerque Center
Sun 09:28:20 PM 33.6047 -111.6847 75° East 378 435 20,300 2,732 Climbing Albuquerque Center
Sun 09:29:21 PM 33.6308 -111.5575 76° East 394 453 22,800 2,146 Climbing Albuquerque Center
Sun 09:30:23 PM 33.6558 -111.4278 77° East 402 463 24,700 1,756 Climbing Albuquerque Center
Sun 09:31:24 PM 33.6842 -111.2922 76° East 420 483 26,400 1,672 Climbing Albuquerque Center
Sun 09:32:25 PM 33.7281 -111.1586 68° East 434 499 28,100 1,659 Climbing Albuquerque Center
Sun 09:33:27 PM 33.7761 -111.0244 67° East 439 505 29,800 1,756 Climbing Albuquerque Center
Sun 09:34:28 PM 33.8239 -110.8908 67° East 439 505 31,700 1,854 Climbing Albuquerque Center
Sun 09:35:30 PM 33.8803 -110.7331 67° East 433 498 33,600 1,561 Climbing Albuquerque Center
Sun 09:36:31 PM 33.9261 -110.6019 67° East 429 494 34,900 1,131 Climbing Albuquerque Center
Sun 09:37:32 PM 33.9728 -110.4683 67° East 431 496 35,900 1,024 Climbing Albuquerque Center
Sun 09:38:34 PM 34.0164 -110.3453 67° East 435 501 37,000 537 Climbing Albuquerque Center
Sun 09:39:35 PM 34.0722 -110.1867 67° East 434 499 37,000  Level Albuquerque Center
Sun 09:40:37 PM 34.1172 -110.0575 67° East 432 497 37,000  Level Albuquerque Center
Sun 09:41:38 PM 34.1617 -109.9297 67° East 432 497 37,000  Level Albuquerque Center
Sun 09:42:39 PM 34.2133 -109.7803 67° East 432 497 37,000  Level Albuquerque Center
Sun 09:43:41 PM 34.2581 -109.6519 67° East 433 498 37,000  Level Albuquerque Center
Sun 09:44:42 PM 34.3092 -109.5036 67° East 429 494 37,000  Level Albuquerque Center
Sun 09:45:43 PM 34.3536 -109.3728 68° East 435 501 37,000  Level Albuquerque Center
Sun 09:46:45 PM 34.3972 -109.2442 68° East 434 499 37,000  Level Albuquerque Center
Sun 09:47:46 PM 34.4481 -109.0944 68° East 433 498 37,000  Level Albuquerque Center
Sun 09:48:47 PM 34.4914 -108.9656 68° East 432 497 37,000  Level Albuquerque Center
Sun 09:49:48 PM 34.5419 -108.8178 67° East 429 494 37,000  Level Albuquerque Center
Sun 09:50:50 PM 34.5839 -108.6914 68° East 426 490 37,000  Level Albuquerque Center
Sun 09:51:51 PM 34.6261 -108.5658 68° East 424 488 37,000  Level Albuquerque Center
Sun 09:52:52 PM 34.6706 -108.4314 68° East 421 484 37,000  Level Albuquerque Center
Sun 09:53:54 PM 34.7144 -108.2978 68° East 424 488 37,000  Level Albuquerque Center
Sun 09:54:55 PM 34.7589 -108.1647 68° East 425 489 37,000  Level Albuquerque Center
Sun 09:55:56 PM 34.8028 -108.0300 68° East 427 491 37,000  Level Albuquerque Center
Sun 09:56:57 PM 34.8503 -107.8861 68° East 428 493 37,000  Level Albuquerque Center
Sun 09:57:59 PM 34.8986 -107.7336 69° East 429 494 37,000  Level Albuquerque Center
Sun 09:59:00 PM 34.9422 -107.5983 68° East 428 493 37,000  Level Albuquerque Center
Sun 10:00:01 PM 34.9853 -107.4631 69° East 428 493 37,000  Level Albuquerque Center
Sun 10:01:02 PM 35.0286 -107.3283 69° East 428 493 37,000  Level Albuquerque Center
Sun 10:02:04 PM 35.0744 -107.1839 69° East 427 491 37,000  Level Albuquerque Center
Sun 10:03:05 PM 35.1183 -107.0472 69° East 428 493 37,000  Level Albuquerque Center
Sun 10:04:06 PM 35.1581 -106.9197 69° East 421 484 37,000  Level Albuquerque Center
Sun 10:05:08 PM 35.2067 -106.7714 68° East 421 484 37,000  Level Albuquerque Center
Sun 10:06:09 PM 35.2458 -106.6422 70° East 424 488 37,000  Level Albuquerque Center
Sun 10:07:10 PM 35.2878 -106.5092 69° East 428 493 37,000  Level Albuquerque Center
Sun 10:08:11 PM 35.3286 -106.3733 70° East 427 491 37,000  Level Albuquerque Center
Sun 10:09:13 PM 35.3711 -106.2372 69° East 427 491 37,000  Level Albuquerque Center
Sun 10:10:14 PM 35.4131 -106.1011 69° East 427 491 37,000  Level Albuquerque Center
Sun 10:11:15 PM 35.4550 -105.9656 69° East 425 489 37,000  Level Albuquerque Center
Sun 10:12:17 PM 35.4997 -105.8156 70° East 425 489 37,000  Level Albuquerque Center
Sun 10:13:18 PM 35.5414 -105.6794 69° East 423 487 37,000  Level Albuquerque Center
Sun 10:14:20 PM 35.5822 -105.5408 70° East 426 490 37,000  Level Albuquerque Center
Sun 10:15:21 PM 35.6272 -105.3811 71° East 422 486 37,000  Level Albuquerque Center
Sun 10:16:22 PM 35.6725 -105.2403 68° East 431 496 37,000  Level Albuquerque Center
Sun 10:17:23 PM 35.7097 -105.1025 72° East 423 487 37,000  Level Albuquerque Center
Sun 10:18:25 PM 35.7525 -104.9622 69° East 428 493 37,000  Level Albuquerque Center
Sun 10:19:26 PM 35.7939 -104.8222 70° East 430 495 37,000  Level Albuquerque Center
Sun 10:20:27 PM 35.8347 -104.6819 70° East 429 494 37,000  Level Albuquerque Center
Sun 10:21:29 PM 35.8753 -104.5411 70° East 430 495 37,000  Level Albuquerque Center
Sun 10:22:30 PM 35.9158 -104.4003 70° East 431 496 37,000  Level Albuquerque Center
Sun 10:23:31 PM 35.9581 -104.2578 70° East 434 499 37,000  Level Albuquerque Center
Sun 10:24:33 PM 35.9978 -104.1150 71° East 434 499 37,000  Level Albuquerque Center
Sun 10:25:34 PM 36.0386 -103.9733 70° East 434 499 37,000  Level Albuquerque Center
Sun 10:26:36 PM 36.0783 -103.8308 71° East 433 498 37,000  Level Albuquerque Center
Sun 10:27:37 PM 36.1197 -103.6886 70° East 434 499 37,000  Level Albuquerque Center
Sun 10:28:38 PM 36.1603 -103.5472 70° East 432 497 37,000  Level Albuquerque Center
Sun 10:29:40 PM 36.2003 -103.4036 71° East 435 501 37,000  Level Albuquerque Center
Sun 10:30:41 PM 36.2403 -103.2589 71° East 440 506 37,000  Level Albuquerque Center
Sun 10:31:42 PM 36.2797 -103.1114 72° East 445 512 37,000  Level Albuquerque Center
Sun 10:32:44 PM 36.3192 -102.9656 71° East 443 510 37,000  Level Albuquerque Center
Sun 10:33:45 PM 36.3594 -102.8175 71° East 440 506 37,000  Level Albuquerque Center
Sun 10:34:47 PM 36.3978 -102.6753 71° East 436 502 37,000  Level Albuquerque Center
Sun 10:35:48 PM 36.4372 -102.5317 71° East 438 504 37,000  Level Albuquerque Center
Sun 10:36:49 PM 36.4831 -102.3592 72° East 439 505 37,000  Level Albuquerque Center
Sun 10:37:51 PM 36.5214 -102.2156 72° East 438 504 37,000  Level Albuquerque Center
Sun 10:38:52 PM 36.5594 -102.0728 72° East 436 502 37,000  Level Albuquerque Center
Sun 10:39:53 PM 36.5978 -101.9269 72° East 435 501 37,000  Level Albuquerque Center
Sun 10:40:55 PM 36.6342 -101.7900 72° East 436 502 37,000  Level Albuquerque Center
Sun 10:41:56 PM 36.6756 -101.6281 72° East 439 505 37,000  Level Albuquerque Center
Sun 10:42:57 PM 36.7111 -101.4897 72° East 439 505 37,000  Level Albuquerque Center
Sun 10:43:59 PM 36.7469 -101.3511 72° East 439 505 37,000  Level Albuquerque Center
Sun 10:44:14 PM 36.7594 -101.3053 71° East 438 504 37,000  Level Kansas City Center
Sun 10:45:16 PM 36.8003 -101.1461 72° East 435 501 37,000  Level Kansas City Center
Sun 10:46:17 PM 36.8350 -101.0064 73° East 440 506 37,000  Level Kansas City Center
Sun 10:47:18 PM 36.8697 -100.8686 72° East 439 505 37,000  Level Kansas City Center
Sun 10:48:19 PM 36.9106 -100.7089 72° East 436 502 37,000  Level Kansas City Center
Sun 10:49:20 PM 36.9444 -100.5719 73° East 434 499 37,000  Level Kansas City Center
Sun 10:50:22 PM 36.9853 -100.4117 72° East 435 501 37,000  Level Kansas City Center
Sun 10:51:23 PM 37.0181 -100.2747 73° East 433 498 37,000  Level Kansas City Center
Sun 10:52:24 PM 37.0519 -100.1386 73° East 431 496 37,000  Level Kansas City Center
Sun 10:53:25 PM 37.0908 -99.9767 73° East 434 499 37,000  Level Kansas City Center
Sun 10:54:26 PM 37.1244 -99.8389 73° East 435 501 37,000  Level Kansas City Center
Sun 10:55:27 PM 37.1631 -99.6764 73° East 437 503 37,000  Level Kansas City Center
Sun 10:56:28 PM 37.1969 -99.5367 73° East 438 504 37,000  Level Kansas City Center
Sun 10:57:29 PM 37.2322 -99.3875 73° East 439 505 37,000  Level Kansas City Center
Sun 10:58:30 PM 37.2669 -99.2386 74° East 443 510 37,000  Level Kansas City Center
Sun 10:59:31 PM 37.3028 -99.0869 73° East 437 503 37,000  Level Kansas City Center
Sun 11:00:33 PM 37.3364 -98.9392 74° East 439 505 37,000  Level Kansas City Center
Sun 11:01:34 PM 37.3711 -98.7944 73° East 437 503 37,000  Level Kansas City Center
Sun 11:02:35 PM 37.4053 -98.6472 74° East 437 503 37,000  Level Kansas City Center
Sun 11:03:36 PM 37.4383 -98.5014 74° East 436 502 37,000  Level Kansas City Center
Sun 11:04:37 PM 37.4725 -98.3547 74° East 436 502 37,000  Level Kansas City Center
Sun 11:05:38 PM 37.5061 -98.2078 74° East 438 504 37,000  Level Kansas City Center
Sun 11:06:39 PM 37.5389 -98.0614 74° East 438 504 37,000  Level Kansas City Center
Sun 11:07:40 PM 37.5697 -97.9161 75° East 435 501 37,000  Level Kansas City Center
Sun 11:08:41 PM 37.6097 -97.7408 74° East 439 505 37,000  Level Kansas City Center
Sun 11:09:42 PM 37.6419 -97.5853 75° East 437 503 37,000  Level Kansas City Center
Sun 11:10:43 PM 37.6739 -97.4483 74° East 437 503 37,000  Level Kansas City Center
Sun 11:11:44 PM 37.7069 -97.2978 74° East 444 511 37,000  Level Kansas City Center
Sun 11:12:45 PM 37.7389 -97.1500 75° East 440 506 37,000  Level Kansas City Center
Sun 11:13:46 PM 37.7711 -96.9997 75° East 444 511 37,000  Level Kansas City Center
Sun 11:14:47 PM 37.8033 -96.8500 75° East 443 510 37,000  Level Kansas City Center
Sun 11:15:48 PM 37.8350 -96.7008 75° East 440 506 37,000  Level Kansas City Center
Sun 11:16:49 PM 37.8664 -96.5517 75° East 440 506 37,000  Level Kansas City Center
Sun 11:17:50 PM 37.8978 -96.4022 75° East 440 506 37,000  Level Kansas City Center
Sun 11:18:51 PM 37.9344 -96.2247 75° East 436 502 37,000  Level Kansas City Center
Sun 11:19:52 PM 37.9617 -96.0919 75° East 434 499 37,000  Level Kansas City Center
Sun 11:20:53 PM 37.9953 -95.9292 75° East 430 495 37,000  Level Kansas City Center
Sun 11:21:54 PM 38.0242 -95.7858 76° East 436 502 37,000  Level Kansas City Center
Sun 11:22:55 PM 38.0525 -95.6433 76° East 437 503 37,000  Level Kansas City Center
Sun 11:23:56 PM 38.0858 -95.4775 76° East 438 504 37,000  Level Kansas City Center
Sun 11:24:57 PM 38.1144 -95.3347 76° East 437 503 37,000  Level Kansas City Center
Sun 11:25:58 PM 38.1475 -95.1689 76° East 435 501 37,000  Level Kansas City Center
Sun 11:26:59 PM 38.1744 -95.0244 77° East 440 506 37,000  Level Kansas City Center
Sun 11:27:59 PM 38.2025 -94.8831 76° East 435 501 37,000  Level Kansas City Center
Sun 11:29:00 PM 38.2350 -94.7161 76° East 436 502 37,000  Level Kansas City Center
Sun 11:30:01 PM 38.2628 -94.5717 76° East 438 504 37,000  Level Kansas City Center
Sun 11:31:02 PM 38.2900 -94.4292 76° East 437 503 37,000  Level Kansas City Center
Sun 11:32:03 PM 38.3225 -94.2597 76° East 439 505 37,000  Level Kansas City Center
Sun 11:33:04 PM 38.3497 -94.1150 76° East 440 506 37,000  Level Kansas City Center
Sun 11:34:05 PM 38.3775 -93.9583 77° East 437 503 37,000  Level Kansas City Center
Sun 11:35:05 PM 38.4056 -93.8056 77° East 440 506 37,000  Level Kansas City Center
Sun 11:36:06 PM 38.4333 -93.6528 77° East 441 507 37,000  Level Kansas City Center
Sun 11:37:07 PM 38.4625 -93.4997 76° East 442 509 37,000  Level Kansas City Center
Sun 11:38:08 PM 38.4894 -93.3469 77° East 440 506 37,000  Level Kansas City Center
Sun 11:39:09 PM 38.5169 -93.1953 77° East 438 504 37,000  Level Kansas City Center
Sun 11:40:09 PM 38.5431 -93.0439 78° East 436 502 37,000  Level Kansas City Center
Sun 11:41:10 PM 38.5700 -92.8939 77° East 432 497 37,000  Level Kansas City Center
Sun 11:42:11 PM 38.5964 -92.7425 77° East 433 498 37,000  Level Kansas City Center
Sun 11:43:12 PM 38.6222 -92.5900 78° East 435 501 37,000  Level Kansas City Center
Sun 11:44:12 PM 38.6483 -92.4383 78° East 434 499 37,000  Level Kansas City Center
Sun 11:45:13 PM 38.6744 -92.2847 78° East 436 502 37,000  Level Kansas City Center
Sun 11:46:14 PM 38.6997 -92.1322 78° East 435 501 37,000 98 Level Kansas City Center
Sun 11:47:15 PM 38.7250 -91.9792 78° East 436 502 37,200 744 Climbing Kansas City Center
Sun 11:48:15 PM 38.7500 -91.8261 78° East 435 501 38,500 893 Climbing Kansas City Center
Sun 11:49:16 PM 38.7750 -91.6717 78° East 433 498 39,000 246 Climbing Kansas City Center
Sun 11:50:17 PM 38.8000 -91.5183 78° East 438 504 39,000  Level Kansas City Center
Sun 11:51:18 PM 38.8253 -91.3636 78° East 441 507 39,000  Level Kansas City Center
Sun 11:52:18 PM 38.8500 -91.2103 78° East 441 507 39,000  Level Kansas City Center
Sun 11:53:19 PM 38.8742 -91.0547 79° East 442 509 39,000  Level Kansas City Center
Sun 11:54:20 PM 38.8992 -90.8983 78° East 444 511 39,000  Level Kansas City Center
Sun 11:55:20 PM 38.9236 -90.7419 79° East 445 512 39,000  Level Kansas City Center
Sun 11:56:21 PM 38.9483 -90.5875 78° East 442 509 39,000  Level Kansas City Center
Sun 11:57:22 PM 38.9725 -90.4294 79° East 444 511 39,000  Level Kansas City Center
Sun 11:58:22 PM 38.9958 -90.2719 79° East 444 511 39,000  Level Kansas City Center
Sun 11:59:23 PM 39.0194 -90.1142 79° East 446 513 39,000  Level Kansas City Center
Mon 12:00:23 AM 39.0439 -89.9400 80° East 443 510 39,000  Level Kansas City Center
Mon 12:01:24 AM 39.0678 -89.7844 79° East 443 510 39,000  Level Kansas City Center
Mon 12:02:25 AM 39.0914 -89.6167 80° East 444 511 39,000  Level Kansas City Center
Mon 12:03:25 AM 39.1142 -89.4611 79° East 443 510 39,000  Level Kansas City Center
Mon 12:04:26 AM 39.1364 -89.3042 80° East 445 512 39,000  Level Kansas City Center
Mon 12:05:26 AM 39.1558 -89.1597 80° East 445 512 39,000  Level Kansas City Center
Mon 12:06:27 AM 39.1767 -89.0206 79° East 448 516 39,000  Level Kansas City Center
Mon 12:07:27 AM 39.2017 -88.8319 80° East 446 513 39,000  Level Kansas City Center
Mon 12:08:28 AM 39.2269 -88.6775 78° East 444 511 39,000  Level Kansas City Center
Mon 12:09:28 AM 39.2467 -88.5139 81° East 446 513 39,000  Level Kansas City Center
Mon 12:10:29 AM 39.2686 -88.3550 80° East 447 514 39,000  Level Kansas City Center
Mon 12:11:30 AM 39.2900 -88.1961 80° East 447 514 39,000  Level Kansas City Center
Mon 12:12:30 AM 39.3108 -88.0369 80° East 448 516 39,000  Level Kansas City Center
Mon 12:13:31 AM 39.3308 -87.8775 81° East 448 516 39,000  Level Kansas City Center
Mon 12:14:31 AM 39.3511 -87.7183 81° East 447 514 39,000  Level Kansas City Center
Mon 12:15:40 AM 39.3717 -87.5514 81° East 452 520 39,000  Level Indianapolis Center
Mon 12:16:40 AM 39.3906 -87.3881 81° East 457 526 39,000  Level Indianapolis Center
Mon 12:17:40 AM 39.4106 -87.2275 81° East 453 521 39,000  Level Indianapolis Center
Mon 12:18:41 AM 39.4311 -87.0639 81° East 457 526 39,000  Level Indianapolis Center
Mon 12:19:41 AM 39.4506 -86.9019 81° East 456 525 39,000  Level Indianapolis Center
Mon 12:20:41 AM 39.4700 -86.7400 81° East 454 522 39,000  Level Indianapolis Center
Mon 12:21:41 AM 39.4897 -86.5781 81° East 454 522 39,000  Level Indianapolis Center
Mon 12:22:42 AM 39.5081 -86.4175 82° East 453 521 39,000  Level Indianapolis Center
Mon 12:23:42 AM 39.5258 -86.2558 82° East 456 525 39,000  Level Indianapolis Center
Mon 12:24:42 AM 39.5447 -86.0944 81° East 458 527 39,000  Level Indianapolis Center
Mon 12:25:42 AM 39.5633 -85.9308 82° East 461 531 39,000  Level Indianapolis Center
Mon 12:26:43 AM 39.5808 -85.7650 82° East 464 534 39,000  Level Indianapolis Center
Mon 12:27:43 AM 39.6000 -85.5972 82° East 467 537 39,000  Level Indianapolis Center
Mon 12:28:43 AM 39.6178 -85.4292 82° East 469 540 39,000  Level Indianapolis Center
Mon 12:29:43 AM 39.6364 -85.2606 82° East 471 542 39,000  Level Indianapolis Center
Mon 12:30:43 AM 39.6531 -85.0911 83° East 473 544 39,000  Level Indianapolis Center
Mon 12:31:43 AM 39.6708 -84.9225 82° East 470 541 39,000  Level Indianapolis Center
Mon 12:32:44 AM 39.6886 -84.7544 82° East 473 544 39,000  Level Indianapolis Center
Mon 12:33:44 AM 39.7056 -84.5847 83° East 471 542 39,000  Level Indianapolis Center
Mon 12:34:44 AM 39.7225 -84.4136 83° East 474 545 39,000  Level Indianapolis Center
Mon 12:35:44 AM 39.7389 -84.2425 83° East 475 547 39,000  Level Indianapolis Center
Mon 12:36:44 AM 39.7542 -84.0722 83° East 473 544 39,000  Level Indianapolis Center
Mon 12:37:44 AM 39.7614 -83.9019 87° East 471 542 39,000  Level Indianapolis Center
Mon 12:38:45 AM 39.7606 -83.7325 90° East 467 537 39,000  Level Indianapolis Center
Mon 12:39:45 AM 39.7594 -83.5608 90° East 470 541 39,000  Level Indianapolis Center
Mon 12:40:45 AM 39.7611 -83.3983 89° East 471 542 39,000  Level Indianapolis Center
Mon 12:41:45 AM 39.7589 -83.2294 91° East 470 541 39,000  Level Indianapolis Center
Mon 12:42:45 AM 39.7578 -83.0606 90° East 468 539 39,000  Level Indianapolis Center
Mon 12:43:45 AM 39.7564 -82.8892 91° East 470 541 39,000  Level Indianapolis Center
Mon 12:44:45 AM 39.7553 -82.7192 90° East 468 539 39,000  Level Indianapolis Center
Mon 12:45:45 AM 39.7536 -82.5483 91° East 469 540 39,000  Level Indianapolis Center
Mon 12:46:46 AM 39.7511 -82.3764 91° East 471 542 39,000  Level Indianapolis Center
Mon 12:47:46 AM 39.7492 -82.2039 91° East 475 547 39,000  Level Indianapolis Center
Mon 12:48:46 AM 39.7456 -82.0325 92° East 473 544 39,000  Level Indianapolis Center
Mon 12:49:46 AM 39.7425 -81.8586 91° East 477 549 39,000  Level Indianapolis Center
Mon 12:50:46 AM 39.7292 -81.6872 96° East 474 545 39,000  Level Indianapolis Center
Mon 12:51:09 AM 39.7269 -81.6142 92° East 479 551 39,000  Level Cleveland Center
Mon 12:52:09 AM 39.7136 -81.4439 96° East 479 551 39,000  Level Cleveland Center
Mon 12:53:09 AM 39.7003 -81.2736 96° East 479 551 39,000  Level Cleveland Center
Mon 12:54:09 AM 39.6886 -81.1036 95° East 479 551 39,000  Level Cleveland Center
Mon 12:55:09 AM 39.6769 -80.9308 95° East 479 551 39,000  Level Cleveland Center
Mon 12:56:09 AM 39.6625 -80.7636 96° East 479 551 39,000  Level Cleveland Center
Mon 12:57:48 AM 39.6394 -80.4856 96° East 489 563 39,000  Level Washington Center
Mon 12:58:47 AM 39.6253 -80.3147 96° East 482 555 39,000  Level Washington Center
Mon 12:59:47 AM 39.6111 -80.1414 96° East 482 555 39,000  Level Washington Center
Mon 01:00:50 AM 39.5944 -79.9706 97° East 482 555 39,000  Level Washington Center
Mon 01:01:48 AM 39.5800 -79.7972 96° East 482 555 39,000 -667 Level Washington Center
Mon 01:02:47 AM 39.5644 -79.6375 97° East 489 563 37,700 -1,934 Descending Washington Center
Mon 01:03:49 AM 39.5494 -79.4644 96° East 489 563 35,100 -2,350 Descending Washington Center
Mon 01:04:47 AM 39.5319 -79.2886 97° East 489 563 33,000 -2,136 Descending Washington Center
Mon 01:05:47 AM 39.5128 -79.0911 97° East 489 563 30,900 -2,100 Descending Washington Center
Mon 01:06:47 AM 39.4969 -78.9183 97° East 489 563 28,800 -2,100 Descending Washington Center
Mon 01:07:47 AM 39.4783 -78.7561 98° East 479 551 26,700 -2,049 Descending Washington Center
Mon 01:08:50 AM 39.4636 -78.5969 97° East 466 536 24,600 -2,000 Descending Washington Center
Mon 01:09:47 AM 39.4467 -78.4431 98° East 444 511 22,700 -1,932 Descending Washington Center
Mon 01:10:48 AM 39.4311 -78.2972 98° East 426 490 20,800 -1,850 Descending Washington Center
Mon 01:11:47 AM 39.4197 -78.1597 96° East 403 464 19,000 -1,613 Descending Washington Center
Mon 01:12:47 AM 39.4036 -78.0278 99° East 383 441 17,600 -1,700 Descending Washington Center
Mon 01:13:47 AM 39.3894 -77.9011 98° East 368 423 15,600 -1,300 Descending Washington Center
Mon 01:14:47 AM 39.3939 -77.7722 87° East 362 417 15,000 -1,200 Descending Washington Center
Mon 01:15:47 AM 39.3919 -77.6514 91° East 344 396 13,200 -1,983 Descending Washington Center
Mon 01:16:48 AM 39.3772 -77.5272 99° East 344 396 11,000 -1,689 Descending Washington Center
Mon 01:17:30 AM 39.3667 -77.4500 100° East 346 398 10,300 -1,188 Descending Potomac TRACON
Mon 01:18:24 AM 39.3500 -77.3500 102° East 320 368 9,100 -1,474 Descending Potomac TRACON
Mon 01:19:24 AM 39.3500 -77.2500 90° East 295 339 7,500 -1,350 Descending Potomac TRACON
Mon 01:20:24 AM 39.3333 -77.1667 104° East 288 331 6,400 -1,150 Descending Potomac TRACON
Mon 01:21:24 AM 39.3167 -77.0667 102° East 282 325 5,200 -950 Descending Potomac TRACON
Mon 01:22:24 AM 39.3167 -76.9833 90° East 269 310 4,500 -900 Descending Potomac TRACON
Mon 01:23:24 AM 39.3000 -76.8833 102° East 247 284 3,400 -850 Descending Potomac TRACON
Mon 01:24:24 AM 39.2833 -76.8167 108° East 231 266 2,800 -600 Descending Potomac TRACON
Mon 01:25:24 AM 39.2667 -76.7500 108° East 212 244 2,200 -750 Descending Potomac TRACON
Mon 01:26:24 AM 39.2333 -76.7333 159° South 189 217 1,300 -810 Descending Potomac TRACON
Mon 01:27:30 AM 39.2000 -76.7000 142° Southeast 143 165 500 -727 Descending Potomac TRACON
Mon 01:29:00 AM 39.1754 -76.6683 142° Southeast  Level Estimated
Mon 01:36:00 AM 39.1754 -76.6683 142° Southeast  Level Estimated
Mon 01:37:00 AM 39.1754 -76.6683 142° Southeast  Level Estimated
Mon 01:38:00 AM 39.1754 -76.6683 142° Southeast  Level Estimated

Login

Don't have an account? Register now (free) for customized features, flight alerts, and more!